New Leaksville, North Carolina
Current Conditions -  °F | °C
As of 9:15 AM on Friday 19 Dec 2014 (Local Time) from KSIF Reporting Station
Scattered Clouds Scattered Clouds  
Wind Chill: 40°   Ceiling: Unl
Heat Index: 40°   Visibility: 10mi
Dew Point: 24°   Wind: 0mph
Humidity: 52%   Direction: NA
Pressure: 30.18"   Gusts: NA
Location:  36.5114°N, 79.7844°W
Report Text: KSIF 191415Z AUTO 00000KT 10SM SCT065 05/M04 A3018 RMK AO2 T00451045
Loading
Personal Weather Stations






























Interactive Weather Map New forecast layout! Learn more

10-Day Weather Forecast

Advertisements
Track Severe Weather on mobile